sensor_id;sensor_type;location;lat;lon;timestamp;pressure;altitude;pressure_sealevel;temperature;humidity
20624;BME280;10471;42.736;23.346;2023-08-30T00:01:11;94604.50;;;19.65;100.00
20624;BME280;10471;42.736;23.346;2023-08-30T00:03:36;94601.88;;;19.50;100.00
20624;BME280;10471;42.736;23.346;2023-08-30T00:06:06;94592.94;;;19.27;100.00
20624;BME280;10471;42.736;23.346;2023-08-30T00:08:32;94586.66;;;19.19;100.00
20624;BME280;10471;42.736;23.346;2023-08-30T00:10:58;94588.13;;;19.17;100.00
20624;BME280;10471;42.736;23.346;2023-08-30T00:13:25;94595.72;;;19.15;100.00
20624;BME280;10471;42.736;23.346;2023-08-30T00:15:50;94591.25;;;19.19;100.00
20624;BME280;10471;42.736;23.346;2023-08-30T00:18:16;94594.59;;;19.16;100.00
20624;BME280;10471;42.736;23.346;2023-08-30T00:20:44;94598.81;;;19.17;100.00
20624;BME280;10471;42.736;23.346;2023-08-30T00:23:09;94604.34;;;19.24;100.00
20624;BME280;10471;42.736;23.346;2023-08-30T00:25:34;94595.88;;;19.22;100.00
20624;BME280;10471;42.736;23.346;2023-08-30T00:28:00;94595.72;;;19.15;100.00
20624;BME280;10471;42.736;23.346;2023-08-30T00:30:25;94585.03;;;19.15;100.00
20624;BME280;10471;42.736;23.346;2023-08-30T00:32:51;94583.13;;;19.15;100.00
20624;BME280;10471;42.736;23.346;2023-08-30T00:35:16;94590.72;;;19.13;100.00
20624;BME280;10471;42.736;23.346;2023-08-30T00:37:41;94599.75;;;19.24;100.00
20624;BME280;10471;42.736;23.346;2023-08-30T00:40:07;94599.91;;;19.31;100.00
20624;BME280;10471;42.736;23.346;2023-08-30T00:42:32;94591.72;;;19.40;100.00
20624;BME280;10471;42.736;23.346;2023-08-30T00:44:58;94588.69;;;19.41;100.00
20624;BME280;10471;42.736;23.346;2023-08-30T00:47:23;94601.22;;;19.37;100.00
20624;BME280;10471;42.736;23.346;2023-08-30T00:49:49;94604.16;;;19.17;100.00
20624;BME280;10471;42.736;23.346;2023-08-30T00:52:15;94610.88;;;19.11;100.00
20624;BME280;10471;42.736;23.346;2023-08-30T00:54:40;94606.03;;;19.01;100.00
20624;BME280;10471;42.736;23.346;2023-08-30T00:57:06;94613.63;;;18.99;100.00
20624;BME280;10471;42.736;23.346;2023-08-30T00:59:33;94610.63;;;19.01;100.00
20624;BME280;10471;42.736;23.346;2023-08-30T01:01:59;94606.56;;;18.91;100.00
20624;BME280;10471;42.736;23.346;2023-08-30T01:04:24;94604.25;;;18.90;100.00
20624;BME280;10471;42.736;23.346;2023-08-30T01:06:50;94609.59;;;18.90;100.00
20624;BME280;10471;42.736;23.346;2023-08-30T01:09:16;94616.47;;;18.91;100.00
20624;BME280;10471;42.736;23.346;2023-08-30T01:11:59;94622.78;;;18.98;100.00
20624;BME280;10471;42.736;23.346;2023-08-30T01:14:30;94632.75;;;19.01;100.00
20624;BME280;10471;42.736;23.346;2023-08-30T01:16:57;94625.19;;;19.03;100.00
20624;BME280;10471;42.736;23.346;2023-08-30T01:25:33;94649.50;;;19.13;100.00
20624;BME280;10471;42.736;23.346;2023-08-30T01:28:04;94645.78;;;19.18;100.00
20624;BME280;10471;42.736;23.346;2023-08-30T01:30:34;94651.50;;;19.16;100.00
20624;BME280;10471;42.736;23.346;2023-08-30T01:33:03;94650.19;;;19.26;100.00
20624;BME280;10471;42.736;23.346;2023-08-30T01:35:30;94642.59;;;19.28;100.00
20624;BME280;10471;42.736;23.346;2023-08-30T01:37:59;94631.13;;;19.27;100.00
20624;BME280;10471;42.736;23.346;2023-08-30T01:40:26;94634.31;;;19.33;100.00
20624;BME280;10471;42.736;23.346;2023-08-30T01:42:53;94631.06;;;19.24;100.00
20624;BME280;10471;42.736;23.346;2023-08-30T01:45:20;94626.66;;;19.16;100.00
20624;BME280;10471;42.736;23.346;2023-08-30T01:47:47;94626.06;;;19.07;100.00
20624;BME280;10471;42.736;23.346;2023-08-30T01:50:14;94624.72;;;19.01;100.00
20624;BME280;10471;42.736;23.346;2023-08-30T01:52:40;94613.72;;;19.03;100.00
20624;BME280;10471;42.736;23.346;2023-08-30T01:55:07;94623.53;;;18.99;100.00
20624;BME280;10471;42.736;23.346;2023-08-30T01:57:34;94639.06;;;19.08;100.00
20624;BME280;10471;42.736;23.346;2023-08-30T01:59:59;94647.63;;;19.14;100.00
20624;BME280;10471;42.736;23.346;2023-08-30T02:02:28;94644.75;;;19.22;100.00
20624;BME280;10471;42.736;23.346;2023-08-30T02:04:54;94637.25;;;19.28;100.00
20624;BME280;10471;42.736;23.346;2023-08-30T02:07:25;94641.91;;;19.31;100.00
20624;BME280;10471;42.736;23.346;2023-08-30T02:10:08;94627.41;;;19.32;100.00
20624;BME280;10471;42.736;23.346;2023-08-30T02:12:42;94631.63;;;19.33;100.00
20624;BME280;10471;42.736;23.346;2023-08-30T02:15:08;94639.50;;;19.26;100.00
20624;BME280;10471;42.736;23.346;2023-08-30T02:17:36;94640.38;;;19.30;100.00
20624;BME280;10471;42.736;23.346;2023-08-30T02:20:03;94640.78;;;19.32;100.00
20624;BME280;10471;42.736;23.346;2023-08-30T02:22:30;94630.53;;;19.34;100.00
20624;BME280;10471;42.736;23.346;2023-08-30T02:24:56;94615.59;;;19.33;100.00
20624;BME280;10471;42.736;23.346;2023-08-30T02:27:21;94614.59;;;19.22;100.00
20624;BME280;10471;42.736;23.346;2023-08-30T02:29:46;94609.50;;;19.17;100.00
20624;BME280;10471;42.736;23.346;2023-08-30T02:32:12;94615.97;;;19.01;100.00
20624;BME280;10471;42.736;23.346;2023-08-30T02:34:37;94616.81;;;19.05;100.00
20624;BME280;10471;42.736;23.346;2023-08-30T02:37:03;94617.44;;;18.98;100.00
20624;BME280;10471;42.736;23.346;2023-08-30T02:39:28;94616.56;;;18.94;100.00
20624;BME280;10471;42.736;23.346;2023-08-30T02:41:53;94614.91;;;18.90;100.00
20624;BME280;10471;42.736;23.346;2023-08-30T02:44:19;94614.75;;;18.83;100.00
20624;BME280;10471;42.736;23.346;2023-08-30T02:46:44;94611.56;;;18.77;100.00
20624;BME280;10471;42.736;23.346;2023-08-30T02:49:09;94598.38;;;18.69;100.00
20624;BME280;10471;42.736;23.346;2023-08-30T02:51:36;94595.19;;;18.63;100.00
20624;BME280;10471;42.736;23.346;2023-08-30T02:54:01;94597.53;;;18.65;100.00
20624;BME280;10471;42.736;23.346;2023-08-30T02:56:27;94597.69;;;18.56;100.00
20624;BME280;10471;42.736;23.346;2023-08-30T02:58:53;94600.56;;;18.36;100.00
20624;BME280;10471;42.736;23.346;2023-08-30T03:01:18;94605.75;;;18.29;100.00
20624;BME280;10471;42.736;23.346;2023-08-30T03:03:45;94592.56;;;18.21;100.00
20624;BME280;10471;42.736;23.346;2023-08-30T03:06:11;94591.84;;;18.24;100.00
20624;BME280;10471;42.736;23.346;2023-08-30T03:08:37;94592.06;;;18.31;100.00
20624;BME280;10471;42.736;23.346;2023-08-30T03:11:12;94604.44;;;18.39;100.00
20624;BME280;10471;42.736;23.346;2023-08-30T03:13:37;94609.72;;;18.35;100.00
20624;BME280;10471;42.736;23.346;2023-08-30T03:16:13;94619.34;;;18.40;100.00
20624;BME280;10471;42.736;23.346;2023-08-30T03:18:39;94616.69;;;18.40;100.00
20624;BME280;10471;42.736;23.346;2023-08-30T03:21:05;94622.38;;;18.38;100.00
20624;BME280;10471;42.736;23.346;2023-08-30T03:23:32;94620.47;;;18.39;100.00
20624;BME280;10471;42.736;23.346;2023-08-30T03:26:16;94616.69;;;18.40;100.00
20624;BME280;10471;42.736;23.346;2023-08-30T03:28:42;94620.47;;;18.39;100.00
20624;BME280;10471;42.736;23.346;2023-08-30T03:31:16;94607.81;;;18.36;100.00
20624;BME280;10471;42.736;23.346;2023-08-30T03:33:42;94603.16;;;18.33;100.00
20624;BME280;10471;42.736;23.346;2023-08-30T03:36:09;94615.63;;;18.29;100.00
20624;BME280;10471;42.736;23.346;2023-08-30T03:38:35;94602.97;;;18.26;100.00
20624;BME280;10471;42.736;23.346;2023-08-30T03:41:00;94602.28;;;18.29;100.00
20624;BME280;10471;42.736;23.346;2023-08-30T03:43:26;94605.44;;;18.19;100.00
20624;BME280;10471;42.736;23.346;2023-08-30T03:45:51;94592.31;;;18.14;100.00
20624;BME280;10471;42.736;23.346;2023-08-30T03:48:17;94599.97;;;18.15;100.00
20624;BME280;10471;42.736;23.346;2023-08-30T03:50:43;94590.09;;;18.16;100.00
20624;BME280;10471;42.736;23.346;2023-08-30T03:53:08;94595.34;;;18.12;100.00
20624;BME280;10471;42.736;23.346;2023-08-30T03:55:33;94604.91;;;18.13;100.00
20624;BME280;10471;42.736;23.346;2023-08-30T03:57:59;94613.56;;;18.10;100.00
20624;BME280;10471;42.736;23.346;2023-08-30T04:00:24;94617.44;;;18.13;100.00
20624;BME280;10471;42.736;23.346;2023-08-30T04:02:50;94625.19;;;18.18;100.00
20624;BME280;10471;42.736;23.346;2023-08-30T04:05:15;94629.91;;;18.21;100.00
20624;BME280;10471;42.736;23.346;2023-08-30T04:07:40;94638.25;;;18.19;100.00
20624;BME280;10471;42.736;23.346;2023-08-30T04:10:06;94634.34;;;18.17;100.00
20624;BME280;10471;42.736;23.346;2023-08-30T04:12:33;94629.66;;;18.14;100.00
20624;BME280;10471;42.736;23.346;2023-08-30T04:15:00;94616.34;;;18.14;100.00
20624;BME280;10471;42.736;23.346;2023-08-30T04:17:26;94619.75;;;18.26;100.00
20624;BME280;10471;42.736;23.346;2023-08-30T04:19:52;94632.69;;;18.40;100.00
20624;BME280;10471;42.736;23.346;2023-08-30T04:22:18;94646.19;;;18.58;100.00
20624;BME280;10471;42.736;23.346;2023-08-30T04:24:43;94658.06;;;18.76;100.00
20624;BME280;10471;42.736;23.346;2023-08-30T04:27:09;94647.75;;;18.90;100.00
20624;BME280;10471;42.736;23.346;2023-08-30T04:29:34;94651.31;;;19.09;100.00
20624;BME280;10471;42.736;23.346;2023-08-30T04:31:59;94649.22;;;19.34;100.00
20624;BME280;10471;42.736;23.346;2023-08-30T04:34:25;94665.75;;;19.39;100.00
20624;BME280;10471;42.736;23.346;2023-08-30T04:36:51;94674.47;;;19.52;100.00
20624;BME280;10471;42.736;23.346;2023-08-30T04:39:16;94687.59;;;19.57;100.00
20624;BME280;10471;42.736;23.346;2023-08-30T04:41:42;94706.06;;;19.31;100.00
20624;BME280;10471;42.736;23.346;2023-08-30T04:44:07;94713.09;;;19.08;100.00
20624;BME280;10471;42.736;23.346;2023-08-30T04:46:33;94713.41;;;18.91;100.00
20624;BME280;10471;42.736;23.346;2023-08-30T04:48:58;94714.94;;;18.92;100.00
20624;BME280;10471;42.736;23.346;2023-08-30T04:51:23;94710.66;;;19.03;100.00
20624;BME280;10471;42.736;23.346;2023-08-30T04:53:49;94706.09;;;19.04;100.00
20624;BME280;10471;42.736;23.346;2023-08-30T04:56:15;94709.81;;;18.99;100.00
20624;BME280;10471;42.736;23.346;2023-08-30T04:58:40;94709.81;;;18.99;100.00
20624;BME280;10471;42.736;23.346;2023-08-30T05:01:06;94697.56;;;18.98;100.00
20624;BME280;10471;42.736;23.346;2023-08-30T05:03:32;94690.84;;;19.04;100.00
20624;BME280;10471;42.736;23.346;2023-08-30T05:05:57;94683.94;;;19.03;100.00
20624;BME280;10471;42.736;23.346;2023-08-30T05:08:23;94692.22;;;18.98;100.00
20624;BME280;10471;42.736;23.346;2023-08-30T05:10:48;94685.28;;;19.09;100.00
20624;BME280;10471;42.736;23.346;2023-08-30T05:13:16;94687.38;;;19.04;100.00
20624;BME280;10471;42.736;23.346;2023-08-30T05:15:41;94700.59;;;19.12;100.00
20624;BME280;10471;42.736;23.346;2023-08-30T05:18:07;94688.19;;;19.19;100.00
20624;BME280;10471;42.736;23.346;2023-08-30T05:20:32;94693.44;;;19.16;100.00
20624;BME280;10471;42.736;23.346;2023-08-30T05:22:58;94695.00;;;19.17;100.00
20624;BME280;10471;42.736;23.346;2023-08-30T05:25:23;94701.66;;;19.23;100.00
20624;BME280;10471;42.736;23.346;2023-08-30T05:27:49;94699.31;;;19.37;100.00
20624;BME280;10471;42.736;23.346;2023-08-30T05:30:14;94700.78;;;19.50;100.00
20624;BME280;10471;42.736;23.346;2023-08-30T05:32:40;94708.09;;;19.68;100.00
20624;BME280;10471;42.736;23.346;2023-08-30T05:35:05;94702.13;;;19.74;100.00
20624;BME280;10471;42.736;23.346;2023-08-30T05:37:31;94704.66;;;19.68;100.00
20624;BME280;10471;42.736;23.346;2023-08-30T05:39:57;94706.06;;;19.80;100.00
20624;BME280;10471;42.736;23.346;2023-08-30T05:42:22;94713.75;;;19.82;100.00
20624;BME280;10471;42.736;23.346;2023-08-30T05:44:48;94711.22;;;20.04;100.00
20624;BME280;10471;42.736;23.346;2023-08-30T05:47:13;94701.94;;;19.98;100.00
20624;BME280;10471;42.736;23.346;2023-08-30T05:49:40;94703.13;;;20.01;100.00
20624;BME280;10471;42.736;23.346;2023-08-30T05:52:06;94701.16;;;19.82;100.00
20624;BME280;10471;42.736;23.346;2023-08-30T05:54:31;94702.22;;;19.63;100.00
20624;BME280;10471;42.736;23.346;2023-08-30T05:56:59;94692.16;;;19.90;100.00
20624;BME280;10471;42.736;23.346;2023-08-30T05:59:24;94702.22;;;19.93;100.00
20624;BME280;10471;42.736;23.346;2023-08-30T06:01:49;94704.63;;;19.98;100.00
20624;BME280;10471;42.736;23.346;2023-08-30T06:04:15;94701.78;;;20.10;100.00
20624;BME280;10471;42.736;23.346;2023-08-30T06:06:40;94698.56;;;20.20;100.00
20624;BME280;10471;42.736;23.346;2023-08-30T06:09:05;94706.94;;;20.19;100.00
20624;BME280;10471;42.736;23.346;2023-08-30T06:11:32;94704.50;;;20.29;100.00
20624;BME280;10471;42.736;23.346;2023-08-30T06:13:58;94704.63;;;20.36;100.00
20624;BME280;10471;42.736;23.346;2023-08-30T06:16:24;94708.31;;;20.28;100.00
20624;BME280;10471;42.736;23.346;2023-08-30T06:18:50;94705.91;;;20.42;100.00
20624;BME280;10471;42.736;23.346;2023-08-30T06:21:16;94700.56;;;20.61;100.00
20624;BME280;10471;42.736;23.346;2023-08-30T06:23:41;94701.50;;;20.72;100.00
20624;BME280;10471;42.736;23.346;2023-08-30T06:26:07;94706.59;;;20.96;100.00
20624;BME280;10471;42.736;23.346;2023-08-30T06:28:32;94700.53;;;21.21;100.00
20624;BME280;10471;42.736;23.346;2023-08-30T06:30:58;94708.63;;;21.24;100.00
20624;BME280;10471;42.736;23.346;2023-08-30T06:33:23;94710.91;;;21.22;100.00
20624;BME280;10471;42.736;23.346;2023-08-30T06:35:49;94715.31;;;21.34;100.00
20624;BME280;10471;42.736;23.346;2023-08-30T06:38:19;94719.41;;;21.06;100.00
20624;BME280;10471;42.736;23.346;2023-08-30T06:40:45;94721.56;;;21.41;100.00
20624;BME280;10471;42.736;23.346;2023-08-30T06:43:11;94712.41;;;21.65;100.00
20624;BME280;10471;42.736;23.346;2023-08-30T06:45:38;94712.31;;;21.83;100.00
20624;BME280;10471;42.736;23.346;2023-08-30T06:48:05;94722.69;;;21.85;100.00
20624;BME280;10471;42.736;23.346;2023-08-30T06:50:31;94724.28;;;21.89;100.00
20624;BME280;10471;42.736;23.346;2023-08-30T06:52:56;94718.66;;;21.98;100.00
20624;BME280;10471;42.736;23.346;2023-08-30T06:55:22;94714.41;;;21.97;100.00
20624;BME280;10471;42.736;23.346;2023-08-30T06:57:48;94712.34;;;22.13;100.00
20624;BME280;10471;42.736;23.346;2023-08-30T07:00:15;94711.47;;;22.05;100.00
20624;BME280;10471;42.736;23.346;2023-08-30T07:02:41;94708.41;;;22.33;100.00
20624;BME280;10471;42.736;23.346;2023-08-30T07:05:10;94707.38;;;22.41;100.00
20624;BME280;10471;42.736;23.346;2023-08-30T07:07:35;94711.75;;;22.52;100.00
20624;BME280;10471;42.736;23.346;2023-08-30T07:10:01;94712.38;;;22.71;100.00
20624;BME280;10471;42.736;23.346;2023-08-30T07:12:26;94716.28;;;22.77;100.00
20624;BME280;10471;42.736;23.346;2023-08-30T07:14:51;94719.56;;;22.97;100.00
20624;BME280;10471;42.736;23.346;2023-08-30T07:17:17;94714.28;;;23.04;100.00
20624;BME280;10471;42.736;23.346;2023-08-30T07:19:42;94716.81;;;23.22;100.00
20624;BME280;10471;42.736;23.346;2023-08-30T07:22:07;94719.66;;;23.40;100.00
20624;BME280;10471;42.736;23.346;2023-08-30T07:24:33;94717.69;;;23.33;100.00
20624;BME280;10471;42.736;23.346;2023-08-30T07:26:58;94709.66;;;23.40;100.00
20624;BME280;10471;42.736;23.346;2023-08-30T07:29:24;94714.28;;;23.40;100.00
20624;BME280;10471;42.736;23.346;2023-08-30T07:31:49;94725.75;;;23.33;100.00
20624;BME280;10471;42.736;23.346;2023-08-30T07:34:16;94725.34;;;23.31;100.00
20624;BME280;10471;42.736;23.346;2023-08-30T07:36:42;94726.59;;;23.41;100.00
20624;BME280;10471;42.736;23.346;2023-08-30T07:39:07;94715.44;;;23.42;100.00
20624;BME280;10471;42.736;23.346;2023-08-30T07:41:33;94724.69;;;23.45;100.00
20624;BME280;10471;42.736;23.346;2023-08-30T07:43:59;94714.22;;;23.36;100.00
20624;BME280;10471;42.736;23.346;2023-08-30T07:46:24;94719.78;;;23.14;100.00
20624;BME280;10471;42.736;23.346;2023-08-30T07:48:50;94718.44;;;23.34;100.00
20624;BME280;10471;42.736;23.346;2023-08-30T07:51:16;94715.81;;;23.41;100.00
20624;BME280;10471;42.736;23.346;2023-08-30T07:53:41;94712.38;;;23.44;100.00
20624;BME280;10471;42.736;23.346;2023-08-30T07:56:06;94704.72;;;23.46;100.00
20624;BME280;10471;42.736;23.346;2023-08-30T07:58:32;94704.72;;;23.46;100.00
20624;BME280;10471;42.736;23.346;2023-08-30T08:00:58;94707.06;;;23.54;100.00
20624;BME280;10471;42.736;23.346;2023-08-30T08:03:23;94713.25;;;23.55;100.00
20624;BME280;10471;42.736;23.346;2023-08-30T08:05:49;94724.31;;;23.46;100.00
20624;BME280;10471;42.736;23.346;2023-08-30T08:08:14;94726.44;;;23.67;100.00
20624;BME280;10471;42.736;23.346;2023-08-30T08:10:40;94719.50;;;23.66;100.00
20624;BME280;10471;42.736;23.346;2023-08-30T08:13:05;94714.63;;;23.78;100.00
20624;BME280;10471;42.736;23.346;2023-08-30T08:15:30;94725.38;;;23.78;100.00
20624;BME280;10471;42.736;23.346;2023-08-30T08:17:57;94725.81;;;23.87;100.00
20624;BME280;10471;42.736;23.346;2023-08-30T08:20:22;94721.38;;;24.08;100.00
20624;BME280;10471;42.736;23.346;2023-08-30T08:22:47;94718.25;;;24.03;93.82
20624;BME280;10471;42.736;23.346;2023-08-30T08:25:13;94728.34;;;24.16;86.26
20624;BME280;10471;42.736;23.346;2023-08-30T08:27:38;94720.69;;;24.25;89.40
20624;BME280;10471;42.736;23.346;2023-08-30T08:30:04;94729.13;;;24.20;83.70
20624;BME280;10471;42.736;23.346;2023-08-30T08:32:30;94732.22;;;24.22;83.46
20624;BME280;10471;42.736;23.346;2023-08-30T08:34:57;94727.59;;;24.23;85.25
20624;BME280;10471;42.736;23.346;2023-08-30T08:37:22;94733.09;;;24.37;78.98
20624;BME280;10471;42.736;23.346;2023-08-30T08:39:48;94743.22;;;24.50;81.86
20624;BME280;10471;42.736;23.346;2023-08-30T08:42:17;94739.59;;;24.32;78.21
20624;BME280;10471;42.736;23.346;2023-08-30T08:44:43;94735.91;;;24.61;79.75
20624;BME280;10471;42.736;23.346;2023-08-30T08:47:11;94727.06;;;24.57;82.22
20624;BME280;10471;42.736;23.346;2023-08-30T08:49:36;94734.38;;;24.56;79.21
20624;BME280;10471;42.736;23.346;2023-08-30T08:52:02;94728.25;;;24.63;82.11
20624;BME280;10471;42.736;23.346;2023-08-30T08:54:28;94730.19;;;24.69;87.50
20624;BME280;10471;42.736;23.346;2023-08-30T08:56:54;94725.59;;;24.77;83.29
20624;BME280;10471;42.736;23.346;2023-08-30T08:59:21;94715.91;;;24.55;73.01
20624;BME280;10471;42.736;23.346;2023-08-30T09:01:46;94717.69;;;24.37;75.54
20624;BME280;10471;42.736;23.346;2023-08-30T09:04:12;94722.06;;;24.66;67.79
20624;BME280;10471;42.736;23.346;2023-08-30T09:06:38;94722.88;;;24.70;74.28
20624;BME280;10471;42.736;23.346;2023-08-30T09:09:08;94719.88;;;24.92;83.31
20624;BME280;10471;42.736;23.346;2023-08-30T09:11:34;94722.59;;;25.03;77.05
20624;BME280;10471;42.736;23.346;2023-08-30T09:13:59;94720.34;;;25.08;80.96
20624;BME280;10471;42.736;23.346;2023-08-30T09:16:25;94711.91;;;25.27;77.40
20624;BME280;10471;42.736;23.346;2023-08-30T09:19:00;94707.69;;;25.36;72.33
20624;BME280;10471;42.736;23.346;2023-08-30T09:21:26;94710.38;;;25.36;71.56
20624;BME280;10471;42.736;23.346;2023-08-30T09:24:05;94700.34;;;25.26;71.55
20624;BME280;10471;42.736;23.346;2023-08-30T09:26:32;94702.69;;;25.49;73.82
20624;BME280;10471;42.736;23.346;2023-08-30T09:29:07;94707.31;;;25.66;75.73
20624;BME280;10471;42.736;23.346;2023-08-30T09:31:37;94709.66;;;25.81;68.45
20624;BME280;10471;42.736;23.346;2023-08-30T09:34:03;94708.09;;;25.83;68.90
20624;BME280;10471;42.736;23.346;2023-08-30T09:36:39;94707.31;;;25.69;66.81
20624;BME280;10471;42.736;23.346;2023-08-30T09:39:09;94709.25;;;25.93;71.49
20624;BME280;10471;42.736;23.346;2023-08-30T09:41:35;94703.44;;;26.19;70.81
20624;BME280;10471;42.736;23.346;2023-08-30T09:44:09;94694.19;;;26.20;68.68
20624;BME280;10471;42.736;23.346;2023-08-30T09:49:08;94698.81;;;26.09;68.28
20624;BME280;10471;42.736;23.346;2023-08-30T09:51:35;94694.19;;;26.16;67.36
20624;BME280;10471;42.736;23.346;2023-08-30T09:54:04;94686.47;;;26.11;66.55
20624;BME280;10471;42.736;23.346;2023-08-30T09:56:31;94686.41;;;26.29;67.81
20624;BME280;10471;42.736;23.346;2023-08-30T09:58:58;94689.53;;;26.17;65.63
20624;BME280;10471;42.736;23.346;2023-08-30T10:01:26;94684.91;;;26.17;63.18
20624;BME280;10471;42.736;23.346;2023-08-30T10:03:52;94671.00;;;26.26;60.84
20624;BME280;10471;42.736;23.346;2023-08-30T10:06:18;94679.47;;;26.35;62.37
20624;BME280;10471;42.736;23.346;2023-08-30T10:08:45;94677.47;;;26.59;64.41
20624;BME280;10471;42.736;23.346;2023-08-30T10:11:11;94677.03;;;26.71;58.83
20624;BME280;10471;42.736;23.346;2023-08-30T10:13:38;94676.97;;;26.85;61.15
20624;BME280;10471;42.736;23.346;2023-08-30T10:16:08;94655.00;;;26.76;58.72
20624;BME280;10471;42.736;23.346;2023-08-30T10:18:37;94663.44;;;26.82;57.29
20624;BME280;10471;42.736;23.346;2023-08-30T10:21:06;94659.97;;;26.88;58.85
20624;BME280;10471;42.736;23.346;2023-08-30T10:23:34;94665.63;;;27.15;57.09
20624;BME280;10471;42.736;23.346;2023-08-30T10:26:01;94660.91;;;27.29;60.40
20624;BME280;10471;42.736;23.346;2023-08-30T10:28:29;94661.72;;;27.19;59.63
20624;BME280;10471;42.736;23.346;2023-08-30T10:30:54;94658.97;;;27.26;59.00
20624;BME280;10471;42.736;23.346;2023-08-30T10:33:23;94656.81;;;27.58;57.90
20624;BME280;10471;42.736;23.346;2023-08-30T10:35:51;94645.81;;;27.79;57.24
20624;BME280;10471;42.736;23.346;2023-08-30T10:38:29;94649.09;;;28.00;52.69
20624;BME280;10471;42.736;23.346;2023-08-30T10:40:55;94659.22;;;27.92;55.65
20624;BME280;10471;42.736;23.346;2023-08-30T10:43:34;94653.06;;;27.88;56.23
20624;BME280;10471;42.736;23.346;2023-08-30T10:46:01;94646.09;;;27.87;57.53
20624;BME280;10471;42.736;23.346;2023-08-30T10:48:40;94648.81;;;27.87;55.78
20624;BME280;10471;42.736;23.346;2023-08-30T10:51:22;94641.91;;;27.83;54.56
20624;BME280;10471;42.736;23.346;2023-08-30T10:53:59;94644.81;;;28.02;57.87
20624;BME280;10471;42.736;23.346;2023-08-30T10:56:31;94651.31;;;28.08;52.98
20624;BME280;10471;42.736;23.346;2023-08-30T10:58:57;94645.13;;;28.08;51.93
20624;BME280;10471;42.736;23.346;2023-08-30T11:01:23;94640.28;;;28.29;56.05
20624;BME280;10471;42.736;23.346;2023-08-30T11:03:49;94640.97;;;28.70;51.91
20624;BME280;10471;42.736;23.346;2023-08-30T11:06:15;94631.34;;;28.95;53.34
20624;BME280;10471;42.736;23.346;2023-08-30T11:08:43;94634.53;;;29.17;50.19
20624;BME280;10471;42.736;23.346;2023-08-30T11:11:09;94634.78;;;29.25;50.73
20624;BME280;10471;42.736;23.346;2023-08-30T11:13:36;94636.78;;;29.21;51.41
20624;BME280;10471;42.736;23.346;2023-08-30T11:16:02;94635.66;;;29.19;52.73
20624;BME280;10471;42.736;23.346;2023-08-30T11:18:30;94643.06;;;29.15;50.72
20624;BME280;10471;42.736;23.346;2023-08-30T11:21:00;94630.03;;;28.77;52.23
20624;BME280;10471;42.736;23.346;2023-08-30T11:23:26;94630.88;;;28.41;53.03
20624;BME280;10471;42.736;23.346;2023-08-30T11:25:52;94620.84;;;28.34;52.17
20624;BME280;10471;42.736;23.346;2023-08-30T11:28:24;94626.38;;;28.27;50.33
20624;BME280;10471;42.736;23.346;2023-08-30T11:30:53;94622.19;;;28.19;51.29
20624;BME280;10471;42.736;23.346;2023-08-30T11:33:18;94623.56;;;27.97;51.99
20624;BME280;10471;42.736;23.346;2023-08-30T11:35:45;94611.69;;;27.84;52.76
20624;BME280;10471;42.736;23.346;2023-08-30T11:38:13;94604.72;;;28.24;53.52
20624;BME280;10471;42.736;23.346;2023-08-30T11:40:39;94603.22;;;28.16;52.21
20624;BME280;10471;42.736;23.346;2023-08-30T11:43:06;94595.59;;;28.07;52.15
20624;BME280;10471;42.736;23.346;2023-08-30T11:45:32;94598.56;;;28.16;50.29
20624;BME280;10471;42.736;23.346;2023-08-30T11:47:59;94585.31;;;28.25;50.23
20624;BME280;10471;42.736;23.346;2023-08-30T11:50:26;94586.16;;;28.52;49.23
20624;BME280;10471;42.736;23.346;2023-08-30T11:52:52;94590.41;;;28.83;48.75
20624;BME280;10471;42.736;23.346;2023-08-30T11:55:18;94583.19;;;29.25;47.09
20624;BME280;10471;42.736;23.346;2023-08-30T11:57:48;94567.88;;;29.61;39.60
20624;BME280;10471;42.736;23.346;2023-08-30T12:00:14;94579.78;;;29.67;39.54
20624;BME280;10471;42.736;23.346;2023-08-30T12:02:40;94580.13;;;29.69;37.11
20624;BME280;10471;42.736;23.346;2023-08-30T12:05:05;94586.66;;;29.52;37.82
20624;BME280;10471;42.736;23.346;2023-08-30T12:07:36;94573.53;;;29.93;38.24
20624;BME280;10471;42.736;23.346;2023-08-30T12:10:10;94583.94;;;29.98;36.51
20624;BME280;10471;42.736;23.346;2023-08-30T12:12:35;94568.09;;;29.93;36.46
20624;BME280;10471;42.736;23.346;2023-08-30T12:15:10;94562.19;;;30.17;36.32
20624;BME280;10471;42.736;23.346;2023-08-30T12:17:36;94553.91;;;30.44;36.55
20624;BME280;10471;42.736;23.346;2023-08-30T12:20:02;94563.38;;;30.90;36.30
20624;BME280;10471;42.736;23.346;2023-08-30T12:22:38;94557.13;;;31.09;35.69
20624;BME280;10471;42.736;23.346;2023-08-30T12:25:04;94550.91;;;31.24;36.13
20624;BME280;10471;42.736;23.346;2023-08-30T12:27:29;94557.41;;;31.30;36.14
20624;BME280;10471;42.736;23.346;2023-08-30T12:29:55;94549.44;;;31.04;36.12
20624;BME280;10471;42.736;23.346;2023-08-30T12:32:20;94548.63;;;31.39;34.48
20624;BME280;10471;42.736;23.346;2023-08-30T12:34:46;94548.28;;;31.53;34.05
20624;BME280;10471;42.736;23.346;2023-08-30T12:37:11;94550.84;;;31.76;32.71
20624;BME280;10471;42.736;23.346;2023-08-30T12:39:36;94550.09;;;32.03;33.03
20624;BME280;10471;42.736;23.346;2023-08-30T12:42:02;94540.47;;;32.27;33.04
20624;BME280;10471;42.736;23.346;2023-08-30T12:44:28;94552.19;;;32.40;32.05
20624;BME280;10471;42.736;23.346;2023-08-30T12:46:54;94539.44;;;32.50;32.02
20624;BME280;10471;42.736;23.346;2023-08-30T12:49:19;94534.66;;;32.66;32.12